Time;durP1;ratioP1;P1;durP2;ratioP2;P2;SDS_P1;SDS_P2;PMS_P1;PMS_P2;Temp;Humidity;BMP_temperature;BMP_pressure;BME280_temperature;BME280_humidity;BME280_pressure;Samples;Min_cycle;Max_cycle;Signal;HPM_P1;HPM_P2
2021/03/23 00:00:52;;;;;;;12.38;8.10;;;5.10;91.20;;;;;;4948274;29;20027;-87
2021/03/23 00:03:25;;;;;;;14.05;8.23;;;5.10;91.20;;;;;;4938904;29;20051;-86
2021/03/23 00:05:51;;;;;;;13.88;7.45;;;5.20;91.20;;;;;;4940758;29;20546;-86
2021/03/23 00:08:28;;;;;;;13.32;6.97;;;5.20;91.20;;;;;;4940308;29;20047;-86
2021/03/23 00:10:55;;;;;;;12.82;8.10;;;5.20;91.20;;;;;;4956655;29;20106;-86
2021/03/23 00:13:20;;;;;;;17.13;8.73;;;5.20;91.20;;;;;;4940392;29;20056;-86
2021/03/23 00:15:47;;;;;;;12.82;7.78;;;5.10;91.10;;;;;;4957410;29;20031;-86
2021/03/23 00:18:13;;;;;;;14.25;8.27;;;5.20;91.20;;;;;;4939778;28;20043;-86
2021/03/23 00:20:39;;;;;;;14.85;7.93;;;5.20;91.20;;;;;;4935152;29;20118;-86
2021/03/23 00:23:06;;;;;;;13.40;8.02;;;5.20;91.30;;;;;;4953139;28;20031;-86
2021/03/23 00:25:31;;;;;;;13.18;7.43;;;5.20;91.30;;;;;;4953660;29;20035;-86
2021/03/23 00:27:57;;;;;;;13.57;8.15;;;5.20;91.20;;;;;;4952571;29;20039;-86
2021/03/23 00:30:23;;;;;;;12.52;7.50;;;5.20;91.20;;;;;;4940098;29;20415;-86
2021/03/23 00:32:49;;;;;;;16.45;8.32;;;5.30;91.20;;;;;;4947048;28;20039;-86
2021/03/23 00:35:14;;;;;;;15.30;7.65;;;5.30;91.20;;;;;;4957084;29;20046;-86
2021/03/23 00:37:41;;;;;;;15.18;8.50;;;5.30;91.20;;;;;;4949487;29;20043;-86
2021/03/23 00:40:11;;;;;;;14.40;7.63;;;5.30;91.20;;;;;;4946877;29;20369;-86
2021/03/23 00:42:37;;;;;;;14.93;7.88;;;5.30;91.20;;;;;;4956283;29;20072;-85
2021/03/23 00:45:04;;;;;;;13.20;7.82;;;5.30;91.20;;;;;;4956196;29;20061;-86
2021/03/23 00:47:29;;;;;;;13.07;8.00;;;5.40;91.20;;;;;;4957068;29;20031;-85
2021/03/23 00:49:55;;;;;;;12.68;7.80;;;5.40;91.20;;;;;;4953791;29;20042;-86
2021/03/23 00:52:20;;;;;;;14.23;7.70;;;5.40;91.10;;;;;;4956674;29;20039;-86
2021/03/23 00:54:46;;;;;;;14.10;7.32;;;5.40;91.00;;;;;;4937104;29;20030;-86
2021/03/23 00:57:11;;;;;;;11.93;7.63;;;5.40;91.10;;;;;;4955595;29;20035;-86
2021/03/23 00:59:37;;;;;;;16.00;8.10;;;5.50;91.10;;;;;;4939768;29;20495;-86
2021/03/23 01:02:03;;;;;;;12.35;8.05;;;5.50;91.10;;;;;;4936761;29;20039;-85
2021/03/23 01:04:28;;;;;;;10.38;6.85;;;5.50;91.10;;;;;;4943613;29;20038;-86
2021/03/23 01:06:54;;;;;;;14.05;7.50;;;5.50;91.30;;;;;;4939279;29;20555;-86
2021/03/23 01:09:20;;;;;;;13.55;7.88;;;5.50;91.00;;;;;;4955509;29;20027;-86
2021/03/23 01:11:45;;;;;;;16.95;8.00;;;5.50;91.10;;;;;;4939167;29;20038;-86
2021/03/23 01:14:11;;;;;;;10.38;6.85;;;5.50;91.10;;;;;;4944898;29;20547;-85
2021/03/23 01:16:36;;;;;;;14.13;7.80;;;5.50;91.00;;;;;;4949491;29;20495;-86
2021/03/23 01:19:02;;;;;;;15.18;8.98;;;5.50;91.00;;;;;;4951285;28;20087;-86
2021/03/23 01:21:27;;;;;;;12.70;7.80;;;5.50;91.00;;;;;;4952377;29;20087;-86
2021/03/23 01:23:53;;;;;;;14.40;8.73;;;5.50;91.00;;;;;;4944648;29;20508;-86
2021/03/23 01:26:18;;;;;;;16.92;8.30;;;5.60;91.00;;;;;;4951545;29;20487;-86
2021/03/23 01:28:44;;;;;;;11.52;7.75;;;5.60;90.90;;;;;;4951257;29;20043;-86
2021/03/23 01:31:09;;;;;;;11.82;7.90;;;5.60;90.90;;;;;;4950519;29;20500;-86
2021/03/23 01:33:35;;;;;;;11.82;7.70;;;5.60;90.90;;;;;;4952660;28;20499;-86
2021/03/23 01:36:00;;;;;;;15.27;7.80;;;5.60;90.90;;;;;;4952736;29;20054;-86
2021/03/23 01:38:26;;;;;;;12.95;8.35;;;5.60;90.90;;;;;;4949797;29;20051;-86
2021/03/23 01:40:52;;;;;;;12.43;9.35;;;5.60;90.90;;;;;;4933769;29;20019;-86
2021/03/23 01:43:29;;;;;;;14.45;8.85;;;5.60;90.80;;;;;;4937006;29;20027;-86
2021/03/23 01:46:00;;;;;;;14.23;9.38;;;5.60;90.80;;;;;;4947474;29;20038;-85
2021/03/23 01:48:32;;;;;;;13.10;8.80;;;5.60;90.90;;;;;;4933699;29;20054;-87
2021/03/23 01:51:04;;;;;;;13.60;9.45;;;5.50;90.90;;;;;;4947339;29;20046;-87
2021/03/23 01:53:35;;;;;;;17.33;10.40;;;5.60;90.90;;;;;;4932790;29;20032;-86
2021/03/23 01:56:01;;;;;;;15.80;10.80;;;5.60;90.90;;;;;;4950376;29;20484;-85
2021/03/23 01:58:28;;;;;;;14.13;10.07;;;5.60;90.90;;;;;;4949314;29;20146;-85
2021/03/23 02:00:54;;;;;;;19.77;11.15;;;5.60;90.90;;;;;;4934423;29;20030;-84
2021/03/23 02:03:21;;;;;;;17.20;11.55;;;5.70;90.90;;;;;;4952434;28;20055;-87
2021/03/23 02:05:55;;;;;;;25.52;12.85;;;5.60;90.90;;;;;;4936539;29;20031;-85
2021/03/23 02:08:21;;;;;;;21.25;12.23;;;5.70;90.90;;;;;;4930596;29;20087;-84
2021/03/23 02:10:47;;;;;;;18.17;11.98;;;5.70;90.80;;;;;;4948716;28;20035;-86
2021/03/23 02:13:13;;;;;;;23.02;13.73;;;5.80;90.80;;;;;;4950336;29;20046;-87
2021/03/23 02:15:38;;;;;;;22.42;13.18;;;5.70;90.70;;;;;;4953165;29;20486;-87
2021/03/23 02:18:12;;;;;;;27.00;16.10;;;5.80;90.70;;;;;;4939275;29;20038;-87
2021/03/23 02:20:55;;;;;;;26.10;17.38;;;5.80;90.70;;;;;;4946401;29;20043;-87
2021/03/23 02:23:25;;;;;;;22.65;15.00;;;5.80;90.70;;;;;;4934783;29;20023;-87
2021/03/23 02:25:50;;;;;;;24.83;16.08;;;5.80;90.70;;;;;;4931518;29;20031;-86
2021/03/23 02:28:16;;;;;;;29.75;18.15;;;5.80;90.60;;;;;;4950130;29;20123;-87
2021/03/23 02:30:43;;;;;;;24.52;15.63;;;5.80;90.60;;;;;;4936693;29;20039;-87
2021/03/23 02:33:09;;;;;;;30.42;18.20;;;5.80;90.90;;;;;;4952813;29;20028;-87
2021/03/23 02:35:36;;;;;;;31.98;19.13;;;5.80;90.70;;;;;;4951465;29;20031;-87
2021/03/23 02:38:02;;;;;;;28.60;19.58;;;5.80;90.60;;;;;;4951543;29;20031;-87
2021/03/23 02:40:29;;;;;;;34.50;19.50;;;5.80;90.60;;;;;;4947408;29;20031;-86
2021/03/23 02:42:55;;;;;;;34.10;21.30;;;5.80;90.60;;;;;;4949409;29;20077;-86
2021/03/23 02:45:22;;;;;;;31.80;19.23;;;5.80;90.60;;;;;;4934074;29;20024;-86
2021/03/23 02:47:48;;;;;;;33.20;20.15;;;5.80;90.50;;;;;;4934753;29;20159;-86
2021/03/23 02:50:14;;;;;;;34.03;21.38;;;5.90;90.60;;;;;;4950931;29;20035;-86
2021/03/23 02:52:40;;;;;;;32.47;19.77;;;5.90;90.50;;;;;;4935567;29;20423;-87
2021/03/23 02:55:06;;;;;;;31.05;19.35;;;5.90;90.50;;;;;;4948306;28;20027;-87
2021/03/23 02:57:31;;;;;;;34.60;20.58;;;5.90;90.50;;;;;;4950600;29;20023;-86
2021/03/23 02:59:57;;;;;;;33.05;21.00;;;5.90;90.40;;;;;;4949618;29;20062;-87
2021/03/23 03:02:22;;;;;;;36.67;21.75;;;5.90;90.40;;;;;;4948412;29;20051;-86
2021/03/23 03:04:48;;;;;;;34.47;22.02;;;5.90;90.30;;;;;;4951030;29;20533;-86
2021/03/23 03:07:13;;;;;;;36.13;23.00;;;5.90;90.20;;;;;;4949756;29;20090;-85
2021/03/23 03:09:39;;;;;;;33.95;20.95;;;5.90;90.10;;;;;;4935802;29;20051;-85
2021/03/23 03:12:05;;;;;;;35.60;22.10;;;5.90;90.10;;;;;;4950593;29;20530;-86
2021/03/23 03:14:31;;;;;;;37.92;22.80;;;5.90;90.10;;;;;;4932359;29;20535;-86
2021/03/23 03:16:57;;;;;;;33.58;22.08;;;5.90;90.10;;;;;;4948957;29;20035;-86
2021/03/23 03:19:22;;;;;;;31.95;20.30;;;5.90;90.10;;;;;;4951377;28;20047;-86
2021/03/23 03:21:48;;;;;;;34.42;22.50;;;5.90;90.10;;;;;;4935738;29;20391;-86
2021/03/23 03:24:14;;;;;;;36.15;21.08;;;6.00;90.10;;;;;;4937293;29;20042;-86
2021/03/23 03:26:39;;;;;;;36.63;21.17;;;6.00;90.10;;;;;;4935854;29;20023;-86
2021/03/23 03:29:05;;;;;;;32.95;21.70;;;6.00;90.00;;;;;;4934971;29;20465;-85
2021/03/23 03:31:31;;;;;;;36.05;23.08;;;5.90;90.00;;;;;;4933496;29;20571;-86
2021/03/23 03:33:58;;;;;;;35.45;23.00;;;6.00;90.00;;;;;;4945406;28;20063;-86
2021/03/23 03:36:26;;;;;;;34.42;21.92;;;5.90;90.00;;;;;;4946074;29;20019;-86
2021/03/23 03:38:52;;;;;;;31.65;21.50;;;5.90;90.00;;;;;;4949391;29;20069;-86
2021/03/23 03:41:19;;;;;;;36.22;21.88;;;6.00;90.00;;;;;;4946702;29;20533;-86
2021/03/23 03:43:44;;;;;;;33.33;22.08;;;6.00;90.00;;;;;;4931272;29;20031;-86
2021/03/23 03:46:11;;;;;;;34.42;20.20;;;5.90;90.00;;;;;;4946553;28;20368;-86
2021/03/23 03:48:36;;;;;;;33.75;20.02;;;6.00;90.00;;;;;;4938875;29;20023;-86
2021/03/23 03:51:03;;;;;;;31.42;19.10;;;6.00;90.00;;;;;;4945581;29;20038;-86
2021/03/23 03:53:28;;;;;;;32.92;20.25;;;6.00;90.00;;;;;;4951273;29;20491;-86
2021/03/23 03:55:54;;;;;;;32.88;20.15;;;6.00;90.00;;;;;;4949904;28;20042;-86
2021/03/23 03:58:20;;;;;;;36.15;21.10;;;6.00;90.00;;;;;;4953178;29;20050;-86
2021/03/23 04:00:46;;;;;;;34.35;20.60;;;6.00;90.00;;;;;;4954147;29;20038;-87
2021/03/23 04:03:15;;;;;;;33.30;20.58;;;6.10;90.00;;;;;;4952755;29;20051;-87
2021/03/23 04:05:43;;;;;;;34.03;18.92;;;6.10;89.90;;;;;;4934953;29;20038;-87
2021/03/23 04:08:12;;;;;;;29.48;18.55;;;6.10;89.90;;;;;;4954793;29;20031;-87
2021/03/23 04:10:39;;;;;;;29.65;17.45;;;6.10;89.80;;;;;;4950264;29;20114;-87
2021/03/23 04:13:05;;;;;;;33.78;19.10;;;6.10;89.80;;;;;;4940996;29;20069;-87
2021/03/23 04:15:39;;;;;;;33.38;18.05;;;6.20;89.70;;;;;;4954034;29;20467;-87
2021/03/23 04:18:06;;;;;;;31.50;17.88;;;6.20;89.60;;;;;;4954259;28;20043;-87
2021/03/23 04:20:31;;;;;;;34.55;19.20;;;6.20;89.60;;;;;;4950407;29;20082;-87
2021/03/23 04:22:57;;;;;;;30.45;17.60;;;6.20;89.50;;;;;;4955877;29;20035;-87
2021/03/23 04:25:26;;;;;;;33.55;18.15;;;6.20;89.40;;;;;;4948477;28;20027;-87
2021/03/23 04:27:52;;;;;;;32.10;17.60;;;6.20;89.30;;;;;;4955278;29;20035;-87
2021/03/23 04:30:19;;;;;;;33.03;18.38;;;6.20;89.30;;;;;;4950246;29;20110;-87
2021/03/23 04:32:46;;;;;;;29.27;17.13;;;6.20;89.20;;;;;;4934720;29;20023;-87
2021/03/23 04:35:38;;;;;;;31.77;18.13;;;6.30;89.30;;;;;;4935236;29;20036;-87
2021/03/23 04:38:03;;;;;;;32.97;18.63;;;6.30;89.20;;;;;;4952465;29;20047;-87
2021/03/23 04:40:29;;;;;;;30.52;16.60;;;6.30;89.10;;;;;;4938668;29;20023;-87
2021/03/23 04:42:54;;;;;;;30.65;17.63;;;6.20;89.10;;;;;;4951496;29;20042;-87
2021/03/23 04:45:20;;;;;;;30.10;16.75;;;6.20;89.00;;;;;;4937715;29;20030;-86
2021/03/23 04:47:47;;;;;;;31.52;19.00;;;6.30;89.10;;;;;;4953393;29;20105;-87
2021/03/23 04:50:13;;;;;;;30.77;17.20;;;6.30;89.10;;;;;;4934536;29;20027;-88
2021/03/23 04:52:39;;;;;;;28.38;17.92;;;6.20;89.00;;;;;;4951627;29;20034;-87
2021/03/23 04:55:05;;;;;;;34.60;17.45;;;6.30;89.00;;;;;;4954436;29;20027;-87
2021/03/23 04:57:30;;;;;;;29.10;17.48;;;6.30;89.00;;;;;;4936438;29;20027;-87
2021/03/23 04:59:56;;;;;;;30.95;17.30;;;6.30;89.00;;;;;;4951044;29;20553;-88
2021/03/23 05:02:21;;;;;;;30.95;16.45;;;6.20;89.00;;;;;;4953072;28;20526;-87
2021/03/23 05:04:47;;;;;;;32.55;17.50;;;6.20;89.00;;;;;;4949939;29;20491;-87
2021/03/23 05:07:13;;;;;;;29.58;16.75;;;6.20;89.00;;;;;;4951880;29;20035;-87
2021/03/23 05:09:38;;;;;;;30.75;17.60;;;6.20;89.10;;;;;;4953384;28;20040;-87
2021/03/23 05:12:04;;;;;;;34.28;17.55;;;6.20;89.10;;;;;;4938349;29;20027;-87
2021/03/23 05:14:30;;;;;;;37.33;18.48;;;6.20;89.20;;;;;;4955077;29;20022;-87
2021/03/23 05:16:55;;;;;;;30.00;16.45;;;6.10;89.10;;;;;;4950932;28;20507;-87
2021/03/23 05:19:21;;;;;;;35.15;17.90;;;6.10;89.20;;;;;;4953866;28;20039;-87
2021/03/23 05:21:46;;;;;;;33.45;17.42;;;6.10;89.20;;;;;;4933919;28;20035;-87
2021/03/23 05:24:12;;;;;;;32.65;17.63;;;6.00;89.30;;;;;;4952889;29;20031;-87
2021/03/23 05:26:37;;;;;;;30.17;17.15;;;6.00;90.00;;;;;;4939184;29;20020;-87
2021/03/23 05:29:03;;;;;;;30.23;17.40;;;6.00;89.50;;;;;;4945702;28;20038;-87
2021/03/23 05:31:30;;;;;;;29.40;17.75;;;6.00;89.50;;;;;;4947940;29;20023;-87
2021/03/23 05:33:55;;;;;;;35.78;18.08;;;6.00;89.50;;;;;;4940292;29;20411;-87
2021/03/23 05:36:22;;;;;;;35.75;17.67;;;6.00;89.50;;;;;;4955659;29;20027;-86
2021/03/23 05:38:48;;;;;;;35.25;17.48;;;6.00;89.50;;;;;;4954625;28;20031;-87
2021/03/23 05:41:27;;;;;;;37.17;17.67;;;6.00;89.40;;;;;;4937900;29;20045;-87
2021/03/23 05:44:18;;;;;;;35.70;17.92;;;6.00;89.40;;;;;;4952282;29;20079;-87
2021/03/23 05:46:44;;;;;;;29.05;16.42;;;6.00;89.40;;;;;;4946439;29;20441;-86
2021/03/23 05:49:34;;;;;;;40.35;19.33;;;5.90;89.40;;;;;;4953538;29;20034;-87
2021/03/23 05:52:22;;;;;;;35.33;16.90;;;5.90;89.40;;;;;;4948072;29;20023;-87
2021/03/23 05:55:06;;;;;;;30.83;17.83;;;5.90;89.50;;;;;;4933764;28;20518;-87
2021/03/23 05:57:41;;;;;;;35.78;17.45;;;5.90;89.50;;;;;;4946592;28;20043;-85
2021/03/23 06:00:10;;;;;;;31.38;16.63;;;5.80;89.60;;;;;;4936208;29;20081;-86
2021/03/23 06:02:57;;;;;;;32.30;17.63;;;5.80;89.60;;;;;;4949186;29;20035;-87
2021/03/23 06:05:35;;;;;;;32.53;17.42;;;5.80;89.80;;;;;;4948970;28;20027;-86
2021/03/23 06:08:03;;;;;;;33.10;17.85;;;5.80;90.00;;;;;;4933824;29;20038;-86
2021/03/23 06:10:29;;;;;;;35.15;17.73;;;5.80;90.00;;;;;;4952211;29;20042;-87
2021/03/23 06:13:36;;;;;;;33.75;18.67;;;5.70;90.00;;;;;;4952102;29;20131;-86
2021/03/23 06:16:11;;;;;;;36.00;18.85;;;5.80;90.00;;;;;;4927165;29;20046;-87
2021/03/23 06:18:43;;;;;;;32.38;17.20;;;5.70;90.00;;;;;;4951082;29;20543;-86
2021/03/23 06:21:19;;;;;;;30.17;16.90;;;5.70;90.10;;;;;;4947411;29;20020;-87
2021/03/23 06:23:56;;;;;;;37.05;16.75;;;5.80;90.20;;;;;;4931229;29;20035;-86
2021/03/23 06:26:29;;;;;;;35.88;17.70;;;5.80;90.20;;;;;;4950120;29;20059;-86
2021/03/23 06:29:06;;;;;;;36.38;17.83;;;5.80;90.20;;;;;;4944427;29;20143;-86
2021/03/23 06:31:46;;;;;;;36.58;17.58;;;5.90;90.30;;;;;;4948935;28;20024;-87
2021/03/23 06:34:19;;;;;;;34.08;17.13;;;5.90;90.50;;;;;;4953107;29;20035;-86
2021/03/23 06:36:44;;;;;;;40.13;19.20;;;6.00;90.20;;;;;;4949933;29;20437;-86
2021/03/23 06:39:11;;;;;;;35.83;17.55;;;6.10;90.20;;;;;;4951304;28;20032;-86
2021/03/23 06:41:51;;;;;;;39.17;18.38;;;6.10;90.20;;;;;;4932870;29;20038;-87
2021/03/23 06:44:16;;;;;;;37.72;19.10;;;6.10;90.20;;;;;;4949628;28;20028;-86
2021/03/23 06:46:50;;;;;;;38.22;18.55;;;6.20;90.20;;;;;;4951236;29;20027;-86
2021/03/23 06:49:16;;;;;;;43.33;17.23;;;6.20;90.20;;;;;;4935624;28;20031;-86
2021/03/23 06:51:51;;;;;;;35.67;18.42;;;6.30;90.20;;;;;;4949654;29;20023;-86
2021/03/23 06:54:22;;;;;;;38.50;18.25;;;6.40;90.10;;;;;;4936023;29;20050;-85
2021/03/23 06:57:15;;;;;;;32.50;17.33;;;6.50;90.10;;;;;;4949483;29;20019;-85
2021/03/23 06:59:59;;;;;;;;;;;6.60;90.00;;;;;;4933373;29;20027;-86
2021/03/23 07:02:31;;;;;;;31.85;17.23;;;6.70;90.00;;;;;;4955703;28;19957;-86
2021/03/23 07:05:15;;;;;;;33.53;17.95;;;6.70;89.90;;;;;;4951415;28;20455;-86
2021/03/23 07:07:54;;;;;;;36.10;18.17;;;6.80;89.80;;;;;;4957340;28;20400;-87
2021/03/23 07:10:23;;;;;;;38.22;19.85;;;6.90;89.70;;;;;;4945372;29;20034;-87
2021/03/23 07:12:49;;;;;;;38.67;19.73;;;6.90;89.60;;;;;;4949736;29;20498;-86
2021/03/23 07:15:32;;;;;;;36.13;17.85;;;7.00;89.60;;;;;;4956216;29;20435;-87
2021/03/23 07:18:01;;;;;;;38.60;19.77;;;7.00;89.60;;;;;;4933473;29;20043;-87
2021/03/23 07:20:36;;;;;;;38.45;18.65;;;7.10;89.50;;;;;;4955679;29;20032;-86
2021/03/23 07:23:22;;;;;;;33.65;19.02;;;7.20;89.40;;;;;;4955060;29;20019;-86
2021/03/23 07:25:48;;;;;;;46.65;23.13;;;7.30;89.10;;;;;;4943003;29;20042;-85
2021/03/23 07:28:36;;;;;;;47.22;22.02;;;7.40;88.80;;;;;;4942991;29;20069;-86
2021/03/23 07:31:05;;;;;;;48.28;23.42;;;7.40;88.50;;;;;;4951636;28;20027;-86
2021/03/23 07:33:40;;;;;;;52.28;24.52;;;7.40;88.30;;;;;;4958592;29;20106;-86
2021/03/23 07:36:08;;;;;;;52.42;25.88;;;7.30;88.40;;;;;;4956536;29;20027;-85
2021/03/23 07:38:43;;;;;;;47.40;23.77;;;7.30;88.70;;;;;;4959808;28;20491;-86
2021/03/23 07:41:20;;;;;;;60.97;27.60;;;7.20;89.00;;;;;;4942368;29;20028;-86
2021/03/23 07:43:52;;;;;;;62.60;29.65;;;7.20;89.30;;;;;;4937859;29;20399;-86
2021/03/23 07:46:26;;;;;;;67.70;33.35;;;7.20;89.60;;;;;;4958926;29;20034;-86
2021/03/23 07:48:56;;;;;;;69.72;34.75;;;7.20;90.00;;;;;;4948503;29;20035;-86
2021/03/23 07:51:41;;;;;;;77.60;37.63;;;7.10;90.10;;;;;;4958572;29;20510;-85
2021/03/23 07:54:37;;;;;;;83.57;38.88;;;7.10;90.20;;;;;;4958981;28;20050;-84
2021/03/23 07:57:37;;;;;;;93.72;43.40;;;7.20;90.40;;;;;;4959268;29;20446;-86
2021/03/23 08:00:20;;;;;;;98.28;44.10;;;7.40;90.40;;;;;;4944273;29;20039;-85
2021/03/23 08:02:58;;;;;;;99.35;44.92;;;7.50;90.20;;;;;;4955929;29;20047;-86
2021/03/23 08:05:50;;;;;;;92.07;42.83;;;7.50;90.10;;;;;;4956865;29;20031;-85
2021/03/23 08:08:21;;;;;;;98.47;45.38;;;7.50;90.10;;;;;;4957724;29;20037;-85
2021/03/23 08:10:49;;;;;;;90.00;44.97;;;7.40;90.20;;;;;;4944106;29;20066;-86
2021/03/23 08:13:33;;;;;;;87.95;44.25;;;7.40;90.10;;;;;;4943067;29;20082;-86
2021/03/23 08:16:22;;;;;;;92.03;44.78;;;7.40;90.20;;;;;;4940055;29;20038;-86
2021/03/23 08:19:13;;;;;;;80.75;40.00;;;7.40;90.30;;;;;;4948435;29;20039;-87
2021/03/23 08:22:10;;;;;;;84.60;44.13;;;7.40;90.30;;;;;;4939264;29;20043;-87
2021/03/23 08:24:59;;;;;;;87.97;43.60;;;7.50;90.20;;;;;;4954991;29;20542;-87
2021/03/23 08:27:49;;;;;;;95.25;46.45;;;7.50;90.10;;;;;;4946272;29;20031;-86
2021/03/23 08:30:45;;;;;;;80.13;40.20;;;7.40;90.10;;;;;;4946500;29;20035;-86
2021/03/23 08:33:51;;;;;;;85.25;42.33;;;7.40;90.10;;;;;;4947047;29;20027;-86
2021/03/23 08:36:42;;;;;;;79.82;40.95;;;7.30;90.20;;;;;;4939453;29;20534;-86
2021/03/23 08:39:35;;;;;;;77.30;38.72;;;7.30;90.10;;;;;;4942090;28;20050;-85
2021/03/23 08:42:14;;;;;;;82.97;41.63;;;7.40;90.30;;;;;;4951881;29;20110;-86
2021/03/23 08:44:59;;;;;;;82.35;39.65;;;7.50;90.20;;;;;;4954509;29;20066;-85
2021/03/23 08:47:37;;;;;;;70.95;36.08;;;7.50;90.00;;;;;;4941300;29;20369;-86
2021/03/23 08:50:14;;;;;;;68.72;35.88;;;7.60;90.10;;;;;;4954809;29;20039;-87
2021/03/23 08:52:43;;;;;;;72.28;35.97;;;7.70;90.00;;;;;;4945255;29;20031;-85
2021/03/23 08:55:38;;;;;;;74.57;37.65;;;7.90;90.00;;;;;;4939085;29;20099;-85
2021/03/23 08:58:18;;;;;;;72.63;33.58;;;8.00;89.60;;;;;;4938185;29;20514;-85
2021/03/23 09:00:54;;;;;;;67.63;33.83;;;8.10;89.40;;;;;;4960007;28;20118;-85
2021/03/23 09:03:20;;;;;;;64.90;32.55;;;8.10;89.30;;;;;;4955451;29;20063;-85
2021/03/23 09:05:54;;;;;;;68.57;32.47;;;8.00;89.40;;;;;;4954707;29;20031;-85
2021/03/23 09:08:49;;;;;;;57.78;30.70;;;7.90;89.20;;;;;;4957123;29;20479;-84
2021/03/23 09:11:31;;;;;;;64.03;31.38;;;7.70;89.50;;;;;;4955342;29;20027;-87
2021/03/23 09:14:08;;;;;;;63.70;33.03;;;7.60;89.90;;;;;;4947275;29;20043;-88
2021/03/23 09:16:58;;;;;;;62.55;30.08;;;7.50;90.20;;;;;;4943667;29;20043;-84
2021/03/23 09:19:29;;;;;;;66.03;31.70;;;7.40;90.40;;;;;;4954446;28;20483;-85
2021/03/23 09:21:56;;;;;;;70.53;36.25;;;7.30;90.50;;;;;;4964267;28;20031;-85
2021/03/23 09:24:33;;;;;;;65.57;33.47;;;7.20;90.70;;;;;;4938789;29;20062;-85
2021/03/23 09:26:59;;;;;;;74.25;33.83;;;7.20;90.70;;;;;;4955116;29;20040;-85
2021/03/23 09:29:30;;;;;;;63.92;30.73;;;7.10;91.00;;;;;;4946620;29;20097;-85
2021/03/23 09:31:55;;;;;;;67.10;32.47;;;7.20;91.10;;;;;;4953875;28;20024;-85
2021/03/23 09:34:59;;;;;;;64.82;32.58;;;7.20;91.00;;;;;;4957294;29;20036;-85
2021/03/23 09:37:39;;;;;;;72.35;32.38;;;7.20;91.00;;;;;;4950955;28;20027;-85
2021/03/23 09:40:17;;;;;;;66.13;34.70;;;7.20;91.00;;;;;;4940172;29;20030;-85
2021/03/23 09:43:05;;;;;;;63.05;30.55;;;7.20;91.20;;;;;;4948443;28;20051;-85
2021/03/23 09:46:03;;;;;;;68.68;32.45;;;7.20;91.30;;;;;;4955497;28;20039;-85
2021/03/23 09:48:36;;;;;;;71.25;32.38;;;7.30;91.50;;;;;;4921607;28;20059;-85
2021/03/23 09:51:12;;;;;;;70.78;32.50;;;7.30;91.30;;;;;;4953073;29;20019;-85
2021/03/23 09:53:42;;;;;;;72.35;34.50;;;7.40;91.40;;;;;;4937137;29;20027;-85
2021/03/23 09:56:12;;;;;;;77.65;40.35;;;7.50;91.40;;;;;;4936094;29;20027;-86
2021/03/23 09:58:38;;;;;;;75.53;37.70;;;7.60;91.00;;;;;;4955901;28;20065;-86
2021/03/23 10:01:15;;;;;;;74.65;37.92;;;7.60;90.90;;;;;;4938953;28;20078;-86
2021/03/23 10:03:41;;;;;;;75.68;36.45;;;7.70;90.90;;;;;;4954873;28;20062;-87
2021/03/23 10:06:17;;;;;;;69.10;33.88;;;7.80;90.90;;;;;;4955503;28;20110;-86
2021/03/23 10:08:58;;;;;;;78.35;37.92;;;8.00;90.70;;;;;;4947587;29;20027;-86
2021/03/23 10:11:25;;;;;;;73.05;34.28;;;8.10;90.40;;;;;;4937105;29;20395;-87
2021/03/23 10:13:59;;;;;;;58.33;30.60;;;8.10;90.20;;;;;;4954546;29;20042;-87
2021/03/23 10:16:28;;;;;;;62.22;32.08;;;8.20;90.00;;;;;;4940351;29;20529;-86
2021/03/23 10:18:57;;;;;;;56.03;29.17;;;8.30;90.00;;;;;;4957578;28;20031;-87
2021/03/23 10:21:29;;;;;;;61.33;31.15;;;8.40;89.30;;;;;;4959094;28;20612;-87
2021/03/23 10:23:58;;;;;;;61.90;29.90;;;8.40;88.40;;;;;;4934865;29;20031;-86
2021/03/23 10:26:32;;;;;;;63.25;31.13;;;8.30;88.50;;;;;;4939578;29;20034;-86
2021/03/23 10:29:17;;;;;;;62.53;30.83;;;8.30;88.90;;;;;;4948950;28;20167;-87
2021/03/23 10:31:49;;;;;;;57.78;29.08;;;8.30;88.90;;;;;;4951050;29;20031;-87
2021/03/23 10:34:23;;;;;;;59.92;29.17;;;8.30;89.00;;;;;;4953217;29;20035;-86
2021/03/23 10:37:04;;;;;;;65.35;30.05;;;8.40;88.90;;;;;;4948104;28;20031;-87
2021/03/23 10:39:44;;;;;;;52.58;27.15;;;8.50;88.90;;;;;;4946470;29;20043;-87
2021/03/23 10:42:27;;;;;;;58.03;29.58;;;8.60;88.60;;;;;;4950443;29;20028;-87
2021/03/23 10:45:21;;;;;;;61.25;30.45;;;8.70;88.20;;;;;;4955309;29;20027;-87
2021/03/23 10:47:57;;;;;;;60.10;28.70;;;8.80;88.20;;;;;;4952640;29;20031;-87
2021/03/23 10:50:25;;;;;;;56.50;29.05;;;8.80;87.60;;;;;;4934909;29;20035;-87
2021/03/23 10:52:52;;;;;;;57.03;29.75;;;9.00;88.00;;;;;;4937711;29;20078;-87
2021/03/23 10:55:33;;;;;;;62.55;30.83;;;9.10;87.20;;;;;;4963800;28;20038;-86
2021/03/23 10:58:17;;;;;;;63.78;31.80;;;9.10;87.30;;;;;;4935442;28;20035;-86
2021/03/23 11:00:43;;;;;;;62.97;30.83;;;9.20;87.20;;;;;;4953351;28;20059;-86
2021/03/23 11:03:27;;;;;;;62.15;30.58;;;9.30;87.60;;;;;;4936422;29;20393;-86
2021/03/23 11:05:53;;;;;;;58.58;29.95;;;9.40;86.80;;;;;;4955447;28;20035;-86
2021/03/23 11:08:19;;;;;;;60.13;29.88;;;9.50;86.90;;;;;;4960961;28;20034;-86
2021/03/23 11:10:45;;;;;;;66.63;32.25;;;9.60;86.40;;;;;;4941048;29;20395;-86
2021/03/23 11:13:12;;;;;;;59.05;28.40;;;9.80;85.90;;;;;;4957181;28;20081;-86
2021/03/23 11:15:42;;;;;;;62.22;30.45;;;9.90;85.70;;;;;;4957990;28;20038;-86
2021/03/23 11:18:16;;;;;;;52.60;27.42;;;9.90;85.00;;;;;;4958626;28;20039;-86
2021/03/23 11:20:43;;;;;;;58.92;29.23;;;9.80;85.10;;;;;;4941856;28;20031;-86
2021/03/23 11:23:47;;;;;;;54.22;25.88;;;9.90;85.30;;;;;;4958726;28;20487;-86
2021/03/23 11:26:19;;;;;;;55.95;28.40;;;9.90;84.60;;;;;;4931588;28;20089;-86
2021/03/23 11:28:46;;;;;;;56.13;27.75;;;9.70;84.00;;;;;;4956770;28;20031;-86
2021/03/23 11:31:15;;;;;;;59.67;30.85;;;9.60;84.70;;;;;;4958826;28;20126;-86
2021/03/23 11:33:40;;;;;;;61.47;29.90;;;9.70;84.80;;;;;;4957392;28;20031;-85
2021/03/23 11:36:06;;;;;;;63.33;29.90;;;9.80;84.60;;;;;;4940846;28;20504;-86
2021/03/23 11:38:32;;;;;;;64.60;30.88;;;9.90;84.70;;;;;;4957444;29;20407;-87
2021/03/23 11:40:59;;;;;;;53.22;26.38;;;10.00;84.30;;;;;;4959477;29;20023;-86
2021/03/23 11:43:37;;;;;;;60.60;30.13;;;10.00;84.20;;;;;;4959177;29;20492;-86
2021/03/23 11:46:24;;;;;;;54.60;28.25;;;10.10;83.80;;;;;;4959162;29;20522;-86
2021/03/23 11:48:56;;;;;;;57.00;27.38;;;10.10;84.00;;;;;;4940546;29;20395;-86
2021/03/23 11:51:24;;;;;;;52.28;27.00;;;10.20;83.20;;;;;;4942451;29;20472;-86
2021/03/23 11:53:50;;;;;;;57.92;28.60;;;10.10;82.80;;;;;;4959662;28;20032;-86
2021/03/23 11:56:17;;;;;;;56.13;27.85;;;9.90;82.30;;;;;;4959099;28;20023;-86
2021/03/23 11:58:43;;;;;;;62.22;29.75;;;9.70;83.20;;;;;;4941145;28;20031;-86
2021/03/23 12:01:09;;;;;;;58.95;29.52;;;9.60;84.20;;;;;;4957915;28;20435;-87
2021/03/23 12:03:35;;;;;;;58.67;29.63;;;9.60;85.00;;;;;;4942136;29;20050;-89
2021/03/23 12:06:01;;;;;;;60.47;31.10;;;9.70;84.30;;;;;;4940903;29;20086;-89
2021/03/23 12:08:26;;;;;;;57.95;28.17;;;9.60;84.20;;;;;;4957918;28;20086;-89
2021/03/23 12:11:12;;;;;;;63.22;29.48;;;9.50;84.60;;;;;;4957864;29;20423;-86
2021/03/23 12:14:10;;;;;;;53.55;28.02;;;9.50;84.80;;;;;;4958532;29;20050;-86
2021/03/23 12:17:00;;;;;;;58.60;29.95;;;9.40;84.90;;;;;;4958224;28;20464;-86
2021/03/23 12:19:32;;;;;;;66.25;30.98;;;9.20;85.40;;;;;;4944536;29;20138;-86
2021/03/23 12:21:58;;;;;;;62.47;30.13;;;9.10;86.10;;;;;;4940746;29;20028;-86
2021/03/23 12:24:24;;;;;;;64.63;30.40;;;9.20;86.10;;;;;;4957329;29;20031;-86
2021/03/23 12:26:51;;;;;;;67.38;31.98;;;9.30;86.20;;;;;;4940610;29;20023;-86
2021/03/23 12:29:17;;;;;;;64.78;30.58;;;9.30;86.00;;;;;;4958152;29;20034;-86
2021/03/23 12:31:43;;;;;;;61.00;30.48;;;9.30;86.20;;;;;;4940821;29;20120;-86
2021/03/23 12:34:09;;;;;;;62.28;30.60;;;9.40;86.00;;;;;;4956947;29;20031;-86
2021/03/23 12:36:35;;;;;;;60.10;30.88;;;9.40;85.90;;;;;;4952534;29;20506;-86
2021/03/23 12:39:02;;;;;;;58.35;27.40;;;9.40;85.40;;;;;;4956064;29;20491;-86
2021/03/23 12:41:33;;;;;;;63.33;29.67;;;9.40;85.60;;;;;;4955034;28;20034;-86
2021/03/23 12:44:00;;;;;;;62.22;31.45;;;9.50;85.30;;;;;;4939664;29;20035;-86
2021/03/23 12:46:25;;;;;;;63.08;32.33;;;9.50;85.40;;;;;;4954429;29;20042;-86
2021/03/23 12:48:51;;;;;;;60.03;30.02;;;9.70;85.10;;;;;;4955455;28;20023;-86
2021/03/23 12:51:23;;;;;;;59.38;28.15;;;9.70;85.10;;;;;;4942558;29;20040;-86
2021/03/23 12:53:50;;;;;;;58.78;30.55;;;9.90;85.20;;;;;;4941791;29;20030;-85
2021/03/23 12:56:17;;;;;;;61.67;30.08;;;9.90;84.30;;;;;;4942284;29;20058;-85
2021/03/23 12:58:45;;;;;;;52.22;27.90;;;10.00;84.50;;;;;;4939553;29;20496;-85
2021/03/23 13:01:11;;;;;;;57.78;27.70;;;10.00;83.90;;;;;;4940057;29;20118;-85